Time;durP1;ratioP1;P1;durP2;ratioP2;P2;SDS_P1;SDS_P2;PMS_P1;PMS_P2;Temp;Humidity;BMP_temperature;BMP_pressure;BME280_temperature;BME280_humidity;BME280_pressure;Samples;Min_cycle;Max_cycle;Signal;HPM_P1;HPM_P2
2022/06/15 00:01:30;;;;;;;7.32;3.10;;;14.30;99.90;;;-144.05;55.19;125687.94;6157627;23;20088;-88
2022/06/15 00:03:57;;;;;;;7.07;2.72;;;14.20;99.90;;;-144.05;55.58;125687.94;6158152;23;20016;-89
2022/06/15 00:06:31;;;;;;;5.90;2.53;;;14.20;99.90;;;-144.05;56.06;125687.94;6158421;23;20088;-89
2022/06/15 00:08:59;;;;;;;6.97;2.67;;;14.10;99.90;;;-144.05;55.86;125687.94;6158172;23;20025;-86
2022/06/15 00:11:35;;;;;;;7.32;2.88;;;14.00;99.90;;;-144.05;56.35;125687.94;6157215;23;20006;-87
2022/06/15 00:14:18;;;;;;;9.45;2.70;;;14.00;99.90;;;-144.05;56.76;125687.94;6165389;23;20010;-87
2022/06/15 00:16:48;;;;;;;8.27;2.95;;;13.90;99.90;;;-144.05;56.73;125687.94;6178797;23;20005;-85
2022/06/15 00:19:15;;;;;;;9.10;2.95;;;13.90;99.90;;;-144.05;57.04;125687.94;6181020;23;20014;-86
2022/06/15 00:21:42;;;;;;;5.28;2.53;;;13.90;99.90;;;-144.05;57.30;125687.94;6161485;23;20331;-89
2022/06/15 00:24:09;;;;;;;8.35;3.13;;;13.80;99.90;;;-144.05;57.24;125687.94;6159044;23;20009;-88
2022/06/15 00:26:36;;;;;;;6.30;2.83;;;13.80;99.90;;;-144.05;57.46;125687.94;6159110;23;20005;-89
2022/06/15 00:29:02;;;;;;;8.88;3.00;;;13.80;99.90;;;-144.05;57.52;125687.94;6160459;23;20066;-90
2022/06/15 00:31:28;;;;;;;7.45;3.50;;;13.80;99.90;;;-144.05;57.42;125687.94;6159282;23;20036;-87
2022/06/15 00:33:54;;;;;;;8.48;3.15;;;13.80;99.90;;;-144.05;57.54;125687.94;6159896;23;20036;-88
2022/06/15 00:36:22;;;;;;;7.55;3.30;;;13.80;99.90;;;-144.05;57.77;125687.94;6159481;23;20016;-88
2022/06/15 00:38:55;;;;;;;8.95;2.88;;;13.70;99.90;;;-144.05;57.42;125687.94;6160592;23;20255;-88
2022/06/15 00:41:28;;;;;;;8.73;3.40;;;13.70;99.90;;;-144.05;57.70;125687.94;6160239;23;20037;-88
2022/06/15 00:44:18;;;;;;;7.15;3.03;;;13.60;99.90;;;-144.05;58.08;125687.94;6159156;23;20064;-90
2022/06/15 00:46:50;;;;;;;10.13;3.80;;;13.60;99.90;;;-144.05;58.56;125687.94;6160202;23;20001;-89
2022/06/15 00:49:34;;;;;;;15.68;3.78;;;13.50;99.90;;;-144.05;58.16;125687.94;6185747;23;20009;-88
2022/06/15 00:52:15;;;;;;;9.13;4.07;;;13.60;99.90;;;-144.05;58.33;125687.94;6159668;23;20028;-88
2022/06/15 00:54:47;;;;;;;6.43;3.63;;;13.60;99.90;;;-144.05;58.12;125687.94;6188386;23;20040;-88
2022/06/15 00:57:14;;;;;;;7.47;3.63;;;13.60;99.90;;;-144.05;58.37;125687.94;6160660;23;20009;-88
2022/06/15 01:00:01;;;;;;;7.70;3.42;;;13.60;99.90;;;-144.05;58.36;125687.94;6161127;23;20017;-89
2022/06/15 01:02:28;;;;;;;6.65;3.25;;;13.50;99.90;;;-144.05;58.60;125687.94;6162072;23;20010;-86
2022/06/15 01:05:09;;;;;;;8.70;3.63;;;13.40;99.90;;;-144.05;58.83;125687.94;6158095;23;20036;-89
2022/06/15 01:08:39;;;;;;;5.38;3.40;;;13.40;99.90;;;-144.05;59.15;125687.94;6158333;23;20032;-87
2022/06/15 01:11:22;;;;;;;10.45;3.75;;;13.30;99.90;;;-144.05;59.46;125687.94;6157989;23;20137;-86
2022/06/15 01:14:52;;;;;;;6.95;3.60;;;13.30;99.90;;;-144.05;59.67;125687.94;6160217;23;20032;-90
2022/06/15 01:17:55;;;;;;;14.93;4.15;;;13.30;99.90;;;-144.05;60.08;125687.94;6045627;23;20015;-90
2022/06/15 01:20:40;;;;;;;9.13;3.78;;;13.10;99.90;;;-144.05;60.75;125687.94;6157396;23;20101;-88
2022/06/15 01:23:53;;;;;;;11.43;3.88;;;13.00;99.90;;;-144.05;61.01;125687.94;6156910;23;20084;-88
2022/06/15 01:26:41;;;;;;;9.73;4.05;;;13.00;99.90;;;-144.05;61.06;125687.94;6158434;23;20092;-86
2022/06/15 01:29:30;;;;;;;9.45;3.67;;;12.90;99.90;;;-144.05;61.26;125687.94;6157625;23;20017;-89
2022/06/15 01:32:12;;;;;;;5.45;3.22;;;12.90;99.90;;;-144.05;61.53;125687.94;6159920;23;20040;-89
2022/06/15 01:35:07;;;;;;;11.23;4.43;;;12.80;99.90;;;-144.05;62.19;125687.94;6183120;23;20009;-87
2022/06/15 01:37:47;;;;;;;10.55;4.90;;;12.70;99.90;;;-144.05;62.50;125687.94;6158961;23;20010;-89
2022/06/15 01:40:41;;;;;;;14.52;4.15;;;12.70;99.90;;;-144.05;62.91;125687.94;6159132;23;20005;-88
2022/06/15 01:43:24;;;;;;;9.55;4.05;;;12.60;99.90;;;-144.05;63.20;125687.94;6161273;23;20010;-87
2022/06/15 01:45:51;;;;;;;10.52;4.18;;;12.50;99.90;;;-144.05;63.35;125687.94;6161085;23;20014;-87
2022/06/15 01:48:19;;;;;;;8.35;4.35;;;12.60;99.90;;;-144.05;63.14;125687.94;6161994;23;20081;-87
2022/06/15 01:50:57;;;;;;;8.45;4.32;;;12.60;99.90;;;-144.05;63.44;125687.94;6160238;23;20502;-87
2022/06/15 01:53:46;;;;;;;9.68;4.22;;;12.50;99.90;;;-144.05;63.41;125687.94;6157828;23;20013;-86
2022/06/15 01:56:45;;;;;;;10.05;4.32;;;12.50;99.90;;;-144.05;63.71;125687.94;6158935;23;20009;-87
2022/06/15 01:59:20;;;;;;;8.35;4.10;;;12.40;99.90;;;-144.05;63.50;125687.94;6164444;23;20060;-88
2022/06/15 02:02:04;;;;;;;9.63;4.47;;;12.50;99.90;;;-144.05;63.56;125687.94;6160427;23;20013;-85
2022/06/15 02:05:06;;;;;;;6.07;4.22;;;12.50;99.90;;;-144.05;63.72;125687.94;6161293;23;20005;-87
2022/06/15 02:07:56;;;;;;;12.00;4.18;;;12.50;99.90;;;-144.05;63.36;125687.94;6162806;23;20375;-87
2022/06/15 02:11:11;;;;;;;6.93;4.32;;;12.50;99.90;;;-144.05;63.46;125687.94;6164148;23;20349;-88
2022/06/15 02:14:07;;;;;;;8.45;4.10;;;12.50;99.90;;;-144.05;63.77;125687.94;6125267;23;20048;-87
2022/06/15 02:16:46;;;;;;;12.50;5.65;;;12.40;99.90;;;-144.05;64.71;125687.94;6158729;23;20096;-87
2022/06/15 02:19:21;;;;;;;9.48;4.53;;;12.40;99.90;;;-144.05;64.18;125687.94;6158135;23;20010;-89
2022/06/15 02:21:53;;;;;;;8.20;4.30;;;12.30;99.90;;;-144.05;64.23;125687.94;6160249;23;20009;-87
2022/06/15 02:24:23;;;;;;;10.68;4.90;;;12.30;99.90;;;-144.05;64.65;125687.94;6160142;23;20005;-86
2022/06/15 02:26:50;;;;;;;13.55;4.78;;;12.30;99.90;;;-144.05;64.67;125687.94;6159271;23;20005;-85
2022/06/15 02:29:26;;;;;;;7.05;4.50;;;12.30;99.90;;;-144.05;64.91;125687.94;6161425;23;20009;-86
2022/06/15 02:31:58;;;;;;;7.70;5.15;;;12.20;99.90;;;-144.05;65.19;125687.94;6171718;23;20041;-86
2022/06/15 02:34:28;;;;;;;9.00;5.35;;;12.20;99.90;;;-144.05;65.32;125687.94;6181465;23;20001;-84
2022/06/15 02:36:54;;;;;;;9.40;5.10;;;12.20;99.90;;;-144.05;65.97;125687.94;6184090;23;20024;-86
2022/06/15 02:39:20;;;;;;;9.48;4.43;;;12.10;99.90;;;-144.05;65.68;125687.94;6157500;23;20090;-86
2022/06/15 02:41:46;;;;;;;10.88;4.55;;;12.10;99.90;;;-144.05;65.68;125687.94;6158172;23;20214;-86
2022/06/15 02:44:19;;;;;;;10.70;5.13;;;12.10;99.90;;;-144.05;65.73;125687.94;6157248;23;20067;-85
2022/06/15 02:46:51;;;;;;;11.07;5.53;;;12.10;99.90;;;-144.05;66.10;125687.94;6164912;23;20013;-87
2022/06/15 02:49:16;;;;;;;9.18;5.22;;;12.10;99.90;;;-144.05;66.31;125687.94;6161792;23;20013;-86
2022/06/15 02:52:01;;;;;;;10.82;5.43;;;12.10;99.90;;;-144.05;66.30;125687.94;6158880;23;20343;-88
2022/06/15 02:54:49;;;;;;;10.55;5.85;;;12.00;99.90;;;-144.05;66.78;125687.94;6159078;23;20013;-89
2022/06/15 02:57:18;;;;;;;10.25;5.80;;;12.00;99.90;;;-144.05;66.67;125687.94;6160784;23;20012;-87
2022/06/15 02:59:45;;;;;;;8.50;5.07;;;12.00;99.90;;;-144.05;66.61;125687.94;6159918;23;20434;-88
2022/06/15 03:02:14;;;;;;;7.95;5.53;;;11.90;99.90;;;-144.05;66.65;125687.94;6158839;23;20347;-89
2022/06/15 03:04:47;;;;;;;10.52;5.88;;;11.90;99.90;;;-144.05;67.23;125687.94;6158361;23;20026;-85
2022/06/15 03:07:15;;;;;;;7.82;4.68;;;11.80;99.90;;;-144.05;67.53;125687.94;6159448;23;20002;-87
2022/06/15 03:09:41;;;;;;;9.82;5.70;;;11.80;99.90;;;-144.05;67.64;125687.94;6159383;23;20005;-89
2022/06/15 03:12:10;;;;;;;9.13;4.60;;;11.70;99.90;;;-144.05;67.95;125687.94;6160618;23;20012;-88
2022/06/15 03:14:36;;;;;;;11.50;5.20;;;11.60;99.90;;;-144.05;68.63;125687.94;6160001;23;20006;-87
2022/06/15 03:17:02;;;;;;;9.82;5.00;;;11.60;99.90;;;-144.05;68.69;125687.94;6159716;23;20035;-89
2022/06/15 03:19:29;;;;;;;11.57;4.78;;;11.50;99.90;;;-144.05;68.94;125687.94;6160857;23;20084;-87
2022/06/15 03:21:55;;;;;;;14.18;4.53;;;11.50;99.90;;;-144.05;69.16;125687.94;6159691;23;20014;-86
2022/06/15 03:24:21;;;;;;;8.85;4.47;;;11.40;99.90;;;-144.05;69.51;125687.94;6160501;23;20510;-87
2022/06/15 03:26:47;;;;;;;7.68;4.60;;;11.40;99.90;;;-144.05;69.73;125687.94;6159344;23;20124;-86
2022/06/15 03:29:13;;;;;;;12.50;4.40;;;11.30;99.90;;;-144.05;70.00;125687.94;6159188;23;20009;-87
2022/06/15 03:54:53;;;;;;;10.80;5.50;;;11.10;99.90;;;-144.05;72.36;125687.94;6249563;23;20020;-89
2022/06/15 03:57:22;;;;;;;18.27;5.85;;;11.10;99.90;;;-144.05;72.46;125687.94;6248676;23;20004;-89
2022/06/15 03:59:48;;;;;;;8.10;5.20;;;11.20;99.90;;;-144.05;72.28;125687.94;6248120;23;20504;-91
2022/06/15 04:02:14;;;;;;;12.30;5.28;;;11.20;99.90;;;-144.05;72.27;125687.94;6248108;23;20011;-87
2022/06/15 04:04:41;;;;;;;11.27;4.65;;;11.40;99.90;;;-144.05;71.98;125687.94;6247537;23;20103;-88
2022/06/15 04:08:34;;;;;;;11.48;5.10;;;11.30;99.90;;;-144.05;71.91;125687.94;6247278;23;20004;-87
2022/06/15 04:09:55;;;;;;;12.00;5.35;;;11.30;99.90;;;-144.05;71.92;125687.94;6249624;23;20301;-88
2022/06/15 04:12:22;;;;;;;8.35;5.45;;;11.30;99.90;;;-144.05;71.78;125687.94;6247635;23;20438;-87
2022/06/15 04:14:49;;;;;;;14.02;4.97;;;11.40;99.90;;;-144.05;71.68;125687.94;6249123;23;20008;-89
2022/06/15 04:17:18;;;;;;;9.13;5.05;;;11.40;99.90;;;-144.05;71.71;125687.94;6266715;22;20003;-84
2022/06/15 04:20:31;;;;;;;12.25;6.38;;;11.40;99.90;;;-144.05;71.48;125687.94;6266177;22;20016;-88
2022/06/15 04:22:30;;;;;;;;;;;11.50;99.90;;;-144.05;70.91;125687.94;6270357;23;19996;-85
2022/06/15 04:24:55;;;;;;;16.25;6.50;;;11.60;99.90;;;-144.05;70.68;125687.94;6265797;22;19912;-89
2022/06/15 04:27:21;;;;;;;13.77;8.23;;;11.70;99.90;;;-144.05;69.93;125687.94;6248425;23;20012;-89
2022/06/15 04:29:48;;;;;;;13.85;7.60;;;11.80;99.90;;;-144.05;69.83;125687.94;6248116;23;20350;-89
2022/06/15 04:32:13;;;;;;;18.00;7.93;;;11.90;99.90;;;-144.05;69.13;125687.94;6247503;23;20030;-86
2022/06/15 04:34:39;;;;;;;14.43;8.05;;;12.00;99.90;;;-144.05;68.85;125687.94;6247473;23;20008;-86
2022/06/15 04:37:05;;;;;;;19.52;7.03;;;12.20;99.90;;;-144.05;67.86;125687.94;6248345;23;20004;-86
2022/06/15 04:39:32;;;;;;;18.08;7.57;;;12.30;99.90;;;-144.05;67.15;125687.94;6248327;23;20421;-86
2022/06/15 04:41:59;;;;;;;10.23;7.50;;;12.50;99.90;;;-144.05;65.82;125687.94;6247612;23;20010;-85
2022/06/15 04:44:25;;;;;;;14.70;7.07;;;12.60;99.90;;;-144.05;65.40;125687.94;6247598;23;20035;-89
2022/06/15 04:46:51;;;;;;;11.60;6.47;;;12.70;99.90;;;-144.05;63.51;125687.94;6247883;23;20050;-87
2022/06/15 04:49:16;;;;;;;14.10;7.15;;;12.90;99.90;;;-144.05;62.60;125687.94;6247686;23;20011;-88
2022/06/15 04:51:42;;;;;;;11.32;6.13;;;13.10;99.90;;;-144.05;61.53;125687.94;6249263;23;20056;-89
2022/06/15 04:54:10;;;;;;;8.68;4.63;;;13.30;99.90;;;-144.05;61.08;125687.94;6249822;23;20062;-89
2022/06/15 04:56:38;;;;;;;14.05;5.25;;;13.40;99.90;;;-144.05;60.14;125687.94;6249633;23;20063;-90
2022/06/15 04:59:07;;;;;;;7.82;4.45;;;13.60;99.90;;;-144.05;59.40;125687.94;6251956;23;20398;-89
2022/06/15 05:01:34;;;;;;;8.73;4.70;;;13.80;99.90;;;-144.05;59.07;125687.94;6252737;23;20012;-89
2022/06/15 05:04:00;;;;;;;8.63;4.18;;;14.00;99.90;;;-144.05;57.93;125687.94;6251652;23;20008;-89
2022/06/15 05:06:37;;;;;;;7.75;3.67;;;14.20;99.90;;;-144.05;56.93;125687.94;6258460;23;20074;-88
2022/06/15 05:09:09;;;;;;;6.25;4.25;;;14.40;99.90;;;-144.05;56.50;125687.94;6255621;23;20090;-92
2022/06/15 05:11:35;;;;;;;8.25;3.97;;;14.50;99.90;;;-144.05;55.53;125687.94;6262550;23;20000;-91
2022/06/15 05:14:03;;;;;;;9.45;4.43;;;14.70;99.90;;;-144.05;54.63;125687.94;6269863;23;20011;-85
2022/06/15 05:16:29;;;;;;;8.65;4.20;;;14.90;99.90;;;-144.05;53.88;125687.94;6271994;22;20043;-88
2022/06/15 05:18:56;;;;;;;9.18;4.43;;;15.10;99.90;;;-144.05;52.62;125687.94;6269065;23;20004;-90
2022/06/15 05:21:22;;;;;;;7.28;3.67;;;15.20;99.90;;;-144.05;52.86;125687.94;6268064;22;20024;-90
2022/06/15 05:23:50;;;;;;;10.05;4.18;;;15.40;99.90;;;-144.05;52.17;125687.94;6267742;23;20027;-89
2022/06/15 05:26:16;;;;;;;15.70;4.65;;;15.50;99.90;;;-144.05;51.25;125687.94;6269037;23;20023;-88
2022/06/15 05:28:45;;;;;;;12.75;4.25;;;15.70;99.90;;;-144.05;51.17;125687.94;6263880;23;20040;-88
2022/06/15 05:31:22;;;;;;;9.52;3.90;;;15.80;99.90;;;-144.05;50.77;125687.94;6250399;23;20071;-90
2022/06/15 05:33:53;;;;;;;10.68;4.40;;;15.90;99.90;;;-144.05;50.28;125687.94;6251559;23;20008;-90
2022/06/15 05:36:31;;;;;;;6.85;3.85;;;16.10;99.90;;;-144.05;49.75;125687.94;6253272;23;20445;-91
2022/06/15 05:38:58;;;;;;;8.73;4.30;;;16.40;99.90;;;-144.05;48.62;125687.94;6253609;23;20115;-89
2022/06/15 05:41:25;;;;;;;10.20;4.40;;;16.60;99.90;;;-144.05;49.02;125687.94;6224075;23;20009;-90
2022/06/15 05:43:52;;;;;;;7.85;4.47;;;16.70;99.90;;;-144.05;48.23;125687.94;6223270;23;20013;-90
2022/06/15 05:46:32;;;;;;;9.45;3.70;;;17.00;99.90;;;-144.05;47.62;125687.94;6221413;23;20442;-89
2022/06/15 05:49:03;;;;;;;10.88;3.28;;;17.30;99.90;;;-144.05;47.26;125687.94;6220973;23;20402;-90
2022/06/15 05:51:30;;;;;;;7.53;4.00;;;17.70;99.90;;;-144.05;45.32;125687.94;6245113;23;20001;-91
2022/06/15 05:53:56;;;;;;;5.78;3.92;;;18.00;99.90;;;-144.05;45.22;125687.94;6246249;23;20012;-88
2022/06/15 05:56:23;;;;;;;8.93;5.00;;;18.10;99.90;;;-144.05;44.88;125687.94;6220157;23;20063;-88
2022/06/15 05:58:50;;;;;;;8.60;3.58;;;18.20;99.90;;;-144.05;45.15;125687.94;6221660;23;20001;-87
2022/06/15 06:01:36;;;;;;;10.13;4.10;;;18.40;99.90;;;-144.05;44.27;125687.94;6220140;23;20011;-88
2022/06/15 06:04:03;;;;;;;7.35;4.05;;;18.40;99.90;;;-144.05;43.69;125687.94;6244475;23;20005;-89
2022/06/15 06:06:31;;;;;;;9.10;4.07;;;18.60;99.90;;;-144.05;44.04;125687.94;6218993;23;20011;-90
2022/06/15 06:08:59;;;;;;;6.93;3.72;;;18.60;99.90;;;-144.05;43.72;125687.94;6219127;23;20008;-87
2022/06/15 06:11:27;;;;;;;10.43;4.72;;;18.90;99.90;;;-144.05;43.05;125687.94;6218890;23;20015;-88
2022/06/15 06:13:53;;;;;;;12.30;4.68;;;19.00;99.90;;;-144.05;42.55;125687.94;6219897;23;20425;-87
2022/06/15 06:16:21;;;;;;;11.60;4.78;;;19.10;99.90;;;-144.05;42.17;125687.94;6219240;23;20185;-87
2022/06/15 06:18:47;;;;;;;12.38;4.18;;;19.10;99.90;;;-144.05;42.12;125687.94;6238307;23;20043;-83
2022/06/15 06:21:14;;;;;;;8.48;3.85;;;19.30;99.90;;;-144.05;41.61;125687.94;6226359;23;20021;-88
2022/06/15 06:23:40;;;;;;;8.20;4.50;;;19.70;99.90;;;-144.05;40.65;125687.94;6218887;23;20065;-88
2022/06/15 06:26:17;;;;;;;7.95;3.45;;;19.90;99.90;;;-144.05;41.17;125687.94;6218827;23;20062;-90
2022/06/15 06:28:43;;;;;;;9.13;4.03;;;19.90;99.90;;;-144.05;40.51;125687.94;6221052;23;20020;-90
2022/06/15 06:31:11;;;;;;;9.63;4.07;;;20.00;99.90;;;-144.05;40.42;125687.94;6222915;23;20047;-87
2022/06/15 06:33:37;;;;;;;8.15;4.03;;;20.20;99.90;;;-144.05;40.31;125687.94;6221666;23;20091;-88
2022/06/15 06:36:19;;;;;;;6.97;3.40;;;20.10;99.90;;;-144.05;39.94;125687.94;6220509;23;20004;-86
2022/06/15 06:38:46;;;;;;;7.13;3.10;;;20.20;99.90;;;-144.05;40.10;125687.94;6220799;23;20012;-88
2022/06/15 06:41:22;;;;;;;8.90;3.40;;;20.50;99.90;;;-144.05;39.56;125687.94;6221907;23;20019;-89
2022/06/15 06:43:53;;;;;;;7.93;3.42;;;20.60;99.90;;;-144.05;39.17;125687.94;6223176;23;20142;-87
2022/06/15 06:46:20;;;;;;;8.60;3.90;;;21.00;99.90;;;-144.05;38.97;125687.94;6225679;23;20031;-86
2022/06/15 06:48:47;;;;;;;9.68;3.88;;;21.30;99.90;;;-144.05;37.99;125687.94;6225261;23;20004;-88
2022/06/15 06:51:14;;;;;;;9.70;3.72;;;21.60;99.10;;;-144.05;38.10;125687.94;6224468;23;20000;-88
2022/06/15 06:53:40;;;;;;;5.78;2.80;;;21.80;99.90;;;-144.05;37.60;125687.94;6220989;23;20004;-87
2022/06/15 06:56:11;;;;;;;9.32;3.95;;;22.00;97.70;;;-144.05;37.00;125687.94;6220800;23;20005;-91
2022/06/15 06:58:38;;;;;;;8.18;3.80;;;21.90;94.90;;;-144.05;37.54;125687.94;6220730;23;20020;-88
2022/06/15 07:01:04;;;;;;;5.60;3.80;;;21.70;94.80;;;-144.05;37.94;125687.94;6222244;23;19997;-89
2022/06/15 07:03:30;;;;;;;10.57;3.58;;;21.70;96.60;;;-144.05;37.35;125687.94;6220234;23;20051;-87
2022/06/15 07:06:05;;;;;;;8.52;4.10;;;21.80;94.50;;;-144.05;36.78;125687.94;6220834;23;20028;-88
2022/06/15 07:08:32;;;;;;;7.10;3.77;;;21.80;93.20;;;-144.05;36.67;125687.94;6221221;23;20064;-90
2022/06/15 07:11:29;;;;;;;6.45;3.60;;;21.90;93.70;;;-144.05;36.87;125687.94;6225609;23;20005;-89
2022/06/15 07:14:18;;;;;;;7.70;3.33;;;21.80;93.60;;;-144.05;36.92;125687.94;6227740;23;20019;-88
2022/06/15 07:17:20;;;;;;;7.97;3.42;;;22.00;93.80;;;-144.05;36.54;125687.94;6228971;23;20034;-89
2022/06/15 07:20:06;;;;;;;10.52;3.60;;;22.30;92.90;;;-144.05;36.03;125687.94;6227333;23;20027;-88
2022/06/15 07:23:29;;;;;;;6.07;3.17;;;22.70;90.40;;;-144.05;35.31;125687.94;6226835;23;20087;-90
2022/06/15 07:26:29;;;;;;;7.65;2.70;;;23.20;87.40;;;-144.05;34.96;125687.94;6227313;23;20012;-86
2022/06/15 07:29:41;;;;;;;;;;;;;;;;;;;;;
2022/06/15 07:33:19;;;;;;;;;;;;;;;;;;;;;
2022/06/15 07:36:05;;;;;;;7.20;3.55;;;23.20;82.30;;;-144.05;34.36;125687.94;6234065;23;20008;-86
2022/06/15 07:38:52;;;;;;;9.65;3.75;;;23.40;80.80;;;-144.05;33.80;125687.94;6239492;23;20013;-89
2022/06/15 07:41:45;;;;;;;9.43;3.75;;;23.70;79.30;;;-144.05;34.04;125687.94;6241239;23;20006;-89
2022/06/15 07:44:41;;;;;;;;;;;;;;;;;;;;;
2022/06/15 07:50:37;;;;;;;8.77;3.22;;;24.20;79.80;;;-144.05;33.23;125687.94;6227380;23;20011;-89
2022/06/15 07:53:44;;;;;;;6.10;3.28;;;24.50;76.00;;;-144.05;34.02;125687.94;6225438;23;20019;-90
2022/06/15 07:56:56;;;;;;;;;;;;;;;;;;;;;
2022/06/15 07:59:43;;;;;;;9.82;3.42;;;24.90;73.10;;;-144.05;32.12;125687.94;6227298;23;20036;-90
2022/06/15 08:02:51;;;;;;;;;;;;;;;;;;;;;
2022/06/15 08:05:42;;;;;;;8.25;3.42;;;25.50;68.40;;;-144.05;32.18;125687.94;6229871;23;20096;-89
2022/06/15 08:09:05;;;;;;;;;;;;;;;;;;;;;
2022/06/15 08:12:23;;;;;;;;;;;;;;;;;;;;;
2022/06/15 08:15:41;;;;;;;;;;;;;;;;;;;;;
2022/06/15 08:19:05;;;;;;;;;;;;;;;;;;;;;
2022/06/15 08:22:23;;;;;;;7.03;3.20;;;25.50;70.50;;;-144.05;32.61;125687.94;6229224;23;20008;-89
2022/06/15 08:25:16;;;;;;;;;;;;;;;;;;;;;
2022/06/15 08:28:04;;;;;;;7.20;2.50;;;26.20;69.20;;;-144.05;31.04;125687.94;6227113;23;19926;-90
2022/06/15 08:31:08;;;;;;;;;;;;;;;;;;;;;
2022/06/15 08:34:43;;;;;;;;;;;;;;;;;;;;;
2022/06/15 08:37:31;;;;;;;11.95;2.90;;;26.20;66.90;;;-144.05;31.48;125687.94;6229397;23;20473;-90
2022/06/15 08:40:11;;;;;;;11.48;2.72;;;25.80;65.40;;;-144.05;31.83;125687.94;6228124;23;20012;-92
2022/06/15 08:43:50;;;;;;;5.25;2.60;;;25.80;65.70;;;-144.05;32.87;125687.94;6228026;23;20453;-90
2022/06/15 08:46:53;;;;;;;7.93;2.28;;;25.90;69.60;;;-144.05;31.17;125687.94;6228185;23;20009;-88
2022/06/15 08:50:33;;;;;;;6.07;2.70;;;26.60;65.60;;;-144.05;30.23;125687.94;6225772;23;20004;-90
2022/06/15 08:53:58;;;;;;;9.07;2.42;;;27.00;63.40;;;-144.05;31.13;125687.94;6227388;23;20005;-88
2022/06/15 08:57:25;;;;;;;;;;;;;;;;;;;;;
2022/06/15 09:00:33;;;;;;;;;;;27.10;62.80;;;-144.05;30.23;125687.94;6229013;23;20328;-89
2022/06/15 09:03:59;;;;;;;;;;;27.50;62.60;;;-144.05;29.95;125687.94;6253716;23;19907;-90
2022/06/15 09:06:47;;;;;;;4.88;1.90;;;27.30;60.40;;;-144.05;29.88;125687.94;6103622;23;19908;-91
2022/06/15 09:10:22;;;;;;;6.63;2.25;;;27.50;61.10;;;-144.05;29.83;125687.94;6230517;23;20027;-89
2022/06/15 09:14:06;;;;;;;5.30;2.10;;;27.40;59.60;;;-144.05;29.84;125687.94;6230918;23;20016;-90
2022/06/15 09:18:10;;;;;;;6.13;2.10;;;27.10;59.60;;;-144.05;29.96;125687.94;6232727;23;20018;-86
2022/06/15 09:21:07;;;;;;;5.47;1.90;;;27.00;59.60;;;-144.05;29.98;125687.94;6245880;23;20034;-86
2022/06/15 09:24:20;;;;;;;4.03;1.73;;;27.40;60.50;;;-144.05;29.30;125687.94;6230957;23;20025;-89
2022/06/15 09:28:45;;;;;;;;;;;;;;;;;;;;;
2022/06/15 09:31:27;;;;;;;6.70;2.35;;;27.50;58.60;;;-144.05;29.53;125687.94;6047607;23;20044;-87
2022/06/15 09:38:58;;;;;;;5.93;1.92;;;28.10;58.10;;;-144.05;28.80;125687.94;6074768;23;20536;-89
2022/06/15 09:46:29;;;;;;;7.35;2.50;;;28.00;56.80;;;-144.05;29.07;125687.94;6165307;23;20036;-88
2022/06/15 09:56:56;;;;;;;7.00;2.55;;;28.60;56.40;;;-144.05;28.98;125687.94;6168154;23;20350;-90
2022/06/15 09:59:26;;;;;;;6.90;2.10;;;28.60;56.80;;;-144.05;28.90;125687.94;6168707;23;20001;-89
2022/06/15 10:02:30;;;;;;;9.55;2.50;;;28.80;57.30;;;-144.05;28.26;125687.94;6166355;23;20005;-88
2022/06/15 10:05:02;;;;;;;8.43;2.25;;;28.70;56.00;;;-144.05;28.80;125687.94;6164675;23;20037;-89
2022/06/15 10:07:43;;;;;;;5.30;2.15;;;28.60;56.90;;;-144.05;28.14;125687.94;6168908;23;20009;-89
2022/06/15 10:10:56;;;;;;;8.30;2.28;;;28.60;55.40;;;-144.05;28.48;125687.94;6167788;23;20005;-87
2022/06/15 10:13:30;;;;;;;6.90;2.15;;;28.40;56.20;;;-144.05;28.76;125687.94;6166270;23;20002;-88
2022/06/15 10:16:19;;;;;;;7.72;2.47;;;28.80;57.00;;;-144.05;28.12;125687.94;6194221;23;20001;-89
2022/06/15 10:18:48;;;;;;;9.32;2.28;;;28.80;55.00;;;-144.05;28.49;125687.94;6167440;23;20034;-90
2022/06/15 10:21:20;;;;;;;7.97;1.77;;;28.90;56.10;;;-144.05;28.30;125687.94;6166909;23;20002;-90
2022/06/15 10:24:17;;;;;;;8.85;2.60;;;29.10;55.80;;;-144.05;27.90;125687.94;6167098;23;20012;-90
2022/06/15 10:27:12;;;;;;;4.85;1.88;;;29.00;55.20;;;-144.05;28.28;125687.94;6166837;23;20006;-88
2022/06/15 10:29:38;;;;;;;5.53;2.30;;;29.00;55.20;;;-144.05;27.65;125687.94;6167799;23;20010;-90
2022/06/15 10:32:19;;;;;;;9.65;2.28;;;29.30;54.20;;;-144.05;27.86;125687.94;6165277;23;20048;-90
2022/06/15 10:34:45;;;;;;;8.45;2.30;;;29.30;54.40;;;-144.05;28.02;125687.94;6190864;23;20010;-88
2022/06/15 10:37:40;;;;;;;9.00;2.42;;;29.10;54.90;;;-144.05;27.52;125687.94;6165449;23;20016;-90
2022/06/15 10:40:35;;;;;;;4.45;1.73;;;29.00;54.30;;;-144.05;27.01;125687.94;6166352;23;20016;-87
2022/06/15 10:43:21;;;;;;;6.65;1.80;;;29.20;53.20;;;-144.05;28.09;125687.94;6166077;23;20025;-91
2022/06/15 10:46:04;;;;;;;9.13;2.33;;;29.10;54.30;;;-144.05;27.80;125687.94;6165719;23;20005;-91
2022/06/15 10:48:47;;;;;;;4.72;2.00;;;29.40;53.20;;;-144.05;27.51;125687.94;6168125;23;20013;-89
2022/06/15 10:51:36;;;;;;;6.75;2.30;;;29.50;53.10;;;-144.05;27.72;125687.94;6166934;23;20012;-89
2022/06/15 11:02:06;;;;;;;7.55;2.08;;;29.40;53.70;;;-144.05;27.81;125687.94;6167020;23;20016;-90
2022/06/15 11:03:25;;;;;;;7.45;1.80;;;29.40;52.60;;;-144.05;27.41;125687.94;6167375;23;20024;-88
2022/06/15 11:05:58;;;;;;;7.90;2.90;;;29.50;53.50;;;-144.05;27.15;125687.94;6165618;23;20033;-89
2022/06/15 11:08:36;;;;;;;7.53;1.95;;;29.30;52.40;;;-144.05;27.38;125687.94;6190344;23;20016;-88
2022/06/15 11:11:26;;;;;;;5.28;1.92;;;29.10;52.60;;;-144.05;27.41;125687.94;6185022;23;20435;-88
2022/06/15 11:14:22;;;;;;;6.65;1.92;;;29.10;52.80;;;-144.05;26.23;125687.94;6157308;23;20013;-87
2022/06/15 11:20:05;;;;;;;3.65;1.73;;;29.80;50.70;;;-144.05;26.59;125687.94;6161353;23;20320;-88
2022/06/15 11:22:35;;;;;;;5.22;1.42;;;30.10;51.30;;;-144.05;25.98;125687.94;6159301;23;20431;-89
2022/06/15 11:25:15;;;;;;;6.22;1.85;;;30.00;50.10;;;-144.05;26.36;125687.94;6157494;23;20013;-88
2022/06/15 11:28:06;;;;;;;4.18;1.98;;;29.70;50.10;;;-144.05;26.93;125687.94;6159014;23;20313;-88
2022/06/15 11:30:52;;;;;;;5.68;1.85;;;29.80;51.70;;;-144.05;26.43;125687.94;6157762;23;20005;-89
2022/06/15 11:33:42;;;;;;;5.68;2.08;;;30.20;50.30;;;-144.05;25.99;125687.94;6158089;23;20029;-89
2022/06/15 11:36:28;;;;;;;4.07;1.88;;;30.20;49.40;;;-144.05;26.03;125687.94;6157828;23;20020;-87
2022/06/15 11:39:15;;;;;;;6.18;1.88;;;29.90;48.90;;;-144.05;25.96;125687.94;6167481;23;20033;-85
2022/06/15 11:42:00;;;;;;;6.93;2.15;;;30.10;49.50;;;-144.05;26.41;125687.94;6178519;23;20036;-88
2022/06/15 11:44:35;;;;;;;6.35;2.45;;;30.40;50.10;;;-144.05;25.94;125687.94;6184383;23;20006;-89
2022/06/15 11:47:07;;;;;;;5.80;1.95;;;30.20;49.40;;;-144.05;25.87;125687.94;6184951;23;20428;-88
2022/06/15 11:50:02;;;;;;;4.32;1.80;;;30.30;48.80;;;-144.05;26.05;125687.94;6157728;23;20017;-89
2022/06/15 11:53:24;;;;;;;4.43;1.70;;;30.50;49.60;;;-144.05;25.07;125687.94;6157320;23;20009;-88
2022/06/15 11:56:15;;;;;;;5.40;1.80;;;30.80;47.00;;;-144.05;25.03;125687.94;6133456;23;20063;-89
2022/06/15 11:58:54;;;;;;;3.53;1.75;;;30.80;47.40;;;-144.05;25.59;125687.94;6157018;23;20005;-90
2022/06/15 12:02:04;;;;;;;3.95;1.65;;;30.80;47.90;;;-144.05;25.08;125687.94;6156597;23;20008;-89
2022/06/15 12:05:18;;;;;;;4.10;1.52;;;30.80;47.10;;;-144.05;25.85;125687.94;6156916;23;20009;-87
2022/06/15 12:08:10;;;;;;;3.95;1.55;;;30.80;48.30;;;-144.05;25.09;125687.94;6157158;23;20436;-88
2022/06/15 12:14:55;;;;;;;2.58;1.48;;;30.80;48.20;;;-144.05;24.65;125687.94;6039628;23;20018;-89
2022/06/15 12:17:46;;;;;;;4.97;1.73;;;30.70;46.20;;;-144.05;25.55;125687.94;6015422;23;20461;-89